Página principal
METAR-TAF:

METAR-TAF

Aeroportos :

Kuwait, Kuwait

Aeroporto Internacional do Kuwait

latitude: 29-13N, longitude: 047-59E, altura: 55 m

Observação actual do tempo

O boletim foi feito há 22 minutos, às 23:00 UTC
Vento calmo
Temperatura 8°C
Humidade 46%
Pressão 1020 hPa
Visibilidade 10 km ou mais
sem nuvens abaixo de 1500 metros e sem cumulonimbus

METAR: OKBK 122300Z 00000KT CAVOK 08/M03 Q1020 NOSIG

Hora: 02:22 (23:22 UTC)

Previsão

O boletim foi feito há 6 horas e 37 minutos, às 16:45 UTC
Previsão válida de 12 às 18 UTC a 13 às 24 UTC
Vento 8 kt de noroeste com rajadas de 18 kt
Visibilidade: 7000 m
Céu limpo

TAF: OKBK 121645Z 1218/1324 32008G18KT 7000 SKC

Observações e previsões do tempo de mais de 4000 aeroportos (mensagens METAR e TAF).

As estações disponíveis são os pontos amarelos e vermelhos sobre o mapa.

Mova o rato sobre o mapa para ver o nome da estação.

Depois clique no ponto para visualizar as observações e previsões meteorológicas.

Para alterar o mapa : clique nos botões verdes com uma cruz preta para aumentar o zoom; no botão verde com uma pitada de zoom; ou nas setas verdes para mapas adjacentes.


METAR-TAF: